sensor_id;sensor_type;location;lat;lon;timestamp;P1;durP1;ratioP1;P2;durP2;ratioP2
53959;SDS011;39866;48.638;-2.020;2022-09-01T00:01:27;14.65;;;3.42;;
53959;SDS011;39866;48.638;-2.020;2022-09-01T00:03:54;16.08;;;3.70;;
53959;SDS011;39866;48.638;-2.020;2022-09-01T00:06:28;12.10;;;2.97;;
53959;SDS011;39866;48.638;-2.020;2022-09-01T00:08:55;11.30;;;3.10;;
53959;SDS011;39866;48.638;-2.020;2022-09-01T00:11:23;13.88;;;3.35;;
53959;SDS011;39866;48.638;-2.020;2022-09-01T00:13:50;14.23;;;2.88;;
53959;SDS011;39866;48.638;-2.020;2022-09-01T00:16:17;18.15;;;3.42;;
53959;SDS011;39866;48.638;-2.020;2022-09-01T00:18:44;18.85;;;3.67;;
53959;SDS011;39866;48.638;-2.020;2022-09-01T00:21:13;11.80;;;3.20;;
53959;SDS011;39866;48.638;-2.020;2022-09-01T00:23:39;12.27;;;2.67;;
53959;SDS011;39866;48.638;-2.020;2022-09-01T00:26:04;14.40;;;3.03;;
53959;SDS011;39866;48.638;-2.020;2022-09-01T00:28:33;11.70;;;2.90;;
53959;SDS011;39866;48.638;-2.020;2022-09-01T00:31:00;13.70;;;2.70;;
53959;SDS011;39866;48.638;-2.020;2022-09-01T00:33:26;16.08;;;3.33;;
53959;SDS011;39866;48.638;-2.020;2022-09-01T00:35:51;15.75;;;3.45;;
53959;SDS011;39866;48.638;-2.020;2022-09-01T00:38:17;14.18;;;2.80;;
53959;SDS011;39866;48.638;-2.020;2022-09-01T00:40:42;12.82;;;2.95;;
53959;SDS011;39866;48.638;-2.020;2022-09-01T00:43:14;10.52;;;2.83;;
53959;SDS011;39866;48.638;-2.020;2022-09-01T00:45:44;11.90;;;2.88;;
53959;SDS011;39866;48.638;-2.020;2022-09-01T00:48:10;12.98;;;2.58;;
53959;SDS011;39866;48.638;-2.020;2022-09-01T00:50:36;13.55;;;3.00;;
53959;SDS011;39866;48.638;-2.020;2022-09-01T00:53:01;13.95;;;2.75;;
53959;SDS011;39866;48.638;-2.020;2022-09-01T00:55:30;12.23;;;3.00;;
53959;SDS011;39866;48.638;-2.020;2022-09-01T00:57:59;10.70;;;2.75;;
53959;SDS011;39866;48.638;-2.020;2022-09-01T01:00:27;15.45;;;2.65;;
53959;SDS011;39866;48.638;-2.020;2022-09-01T01:02:54;11.68;;;2.97;;
53959;SDS011;39866;48.638;-2.020;2022-09-01T01:05:54;14.00;;;2.45;;
53959;SDS011;39866;48.638;-2.020;2022-09-01T01:08:18;13.13;;;3.05;;
53959;SDS011;39866;48.638;-2.020;2022-09-01T01:10:51;14.20;;;2.72;;
53959;SDS011;39866;48.638;-2.020;2022-09-01T01:13:16;12.48;;;2.75;;
53959;SDS011;39866;48.638;-2.020;2022-09-01T01:15:44;11.57;;;2.95;;
53959;SDS011;39866;48.638;-2.020;2022-09-01T01:18:10;12.18;;;2.70;;
53959;SDS011;39866;48.638;-2.020;2022-09-01T01:20:36;13.65;;;2.85;;
53959;SDS011;39866;48.638;-2.020;2022-09-01T01:23:23;15.00;;;2.83;;
53959;SDS011;39866;48.638;-2.020;2022-09-01T01:26:12;13.48;;;2.63;;
53959;SDS011;39866;48.638;-2.020;2022-09-01T01:28:39;13.48;;;2.65;;
53959;SDS011;39866;48.638;-2.020;2022-09-01T01:31:08;9.38;;;2.15;;
53959;SDS011;39866;48.638;-2.020;2022-09-01T01:33:44;10.35;;;2.80;;
53959;SDS011;39866;48.638;-2.020;2022-09-01T01:36:16;14.82;;;2.90;;
53959;SDS011;39866;48.638;-2.020;2022-09-01T01:38:46;9.80;;;2.45;;
53959;SDS011;39866;48.638;-2.020;2022-09-01T01:41:13;10.32;;;2.35;;
53959;SDS011;39866;48.638;-2.020;2022-09-01T01:43:41;8.90;;;2.35;;
53959;SDS011;39866;48.638;-2.020;2022-09-01T01:46:07;14.00;;;2.67;;
53959;SDS011;39866;48.638;-2.020;2022-09-01T01:48:35;13.80;;;2.85;;
53959;SDS011;39866;48.638;-2.020;2022-09-01T01:51:03;11.80;;;2.42;;
53959;SDS011;39866;48.638;-2.020;2022-09-01T01:53:30;10.43;;;2.55;;
53959;SDS011;39866;48.638;-2.020;2022-09-01T01:55:57;14.07;;;2.60;;
53959;SDS011;39866;48.638;-2.020;2022-09-01T01:58:24;10.38;;;2.65;;
53959;SDS011;39866;48.638;-2.020;2022-09-01T02:00:51;9.35;;;2.65;;
53959;SDS011;39866;48.638;-2.020;2022-09-01T02:03:18;11.88;;;2.53;;
53959;SDS011;39866;48.638;-2.020;2022-09-01T02:05:47;10.95;;;2.70;;
53959;SDS011;39866;48.638;-2.020;2022-09-01T02:08:13;8.93;;;2.53;;
53959;SDS011;39866;48.638;-2.020;2022-09-01T02:10:43;9.27;;;2.40;;
53959;SDS011;39866;48.638;-2.020;2022-09-01T02:13:11;11.35;;;2.60;;
53959;SDS011;39866;48.638;-2.020;2022-09-01T02:15:43;9.43;;;2.22;;
53959;SDS011;39866;48.638;-2.020;2022-09-01T02:18:11;10.55;;;2.53;;
53959;SDS011;39866;48.638;-2.020;2022-09-01T02:20:40;8.43;;;2.70;;
53959;SDS011;39866;48.638;-2.020;2022-09-01T02:23:06;9.45;;;2.47;;
53959;SDS011;39866;48.638;-2.020;2022-09-01T02:25:37;9.82;;;2.80;;
53959;SDS011;39866;48.638;-2.020;2022-09-01T02:28:06;6.70;;;2.13;;
53959;SDS011;39866;48.638;-2.020;2022-09-01T02:30:35;9.63;;;2.60;;
53959;SDS011;39866;48.638;-2.020;2022-09-01T02:33:01;11.80;;;2.83;;
53959;SDS011;39866;48.638;-2.020;2022-09-01T02:35:28;14.45;;;3.08;;
53959;SDS011;39866;48.638;-2.020;2022-09-01T02:37:55;11.63;;;2.30;;
53959;SDS011;39866;48.638;-2.020;2022-09-01T02:40:25;12.40;;;2.90;;
53959;SDS011;39866;48.638;-2.020;2022-09-01T02:42:54;8.63;;;2.50;;
53959;SDS011;39866;48.638;-2.020;2022-09-01T02:45:20;11.10;;;2.63;;
53959;SDS011;39866;48.638;-2.020;2022-09-01T02:47:46;9.10;;;2.42;;
53959;SDS011;39866;48.638;-2.020;2022-09-01T02:50:13;8.95;;;2.38;;
53959;SDS011;39866;48.638;-2.020;2022-09-01T02:52:42;9.95;;;2.58;;
53959;SDS011;39866;48.638;-2.020;2022-09-01T02:55:09;10.68;;;2.63;;
53959;SDS011;39866;48.638;-2.020;2022-09-01T02:57:35;10.68;;;2.38;;
53959;SDS011;39866;48.638;-2.020;2022-09-01T03:00:02;9.27;;;2.20;;
53959;SDS011;39866;48.638;-2.020;2022-09-01T03:02:38;11.15;;;2.70;;
53959;SDS011;39866;48.638;-2.020;2022-09-01T03:05:04;8.43;;;2.35;;
53959;SDS011;39866;48.638;-2.020;2022-09-01T03:07:31;14.25;;;2.92;;
53959;SDS011;39866;48.638;-2.020;2022-09-01T03:09:57;11.25;;;2.80;;
53959;SDS011;39866;48.638;-2.020;2022-09-01T03:12:22;11.82;;;2.42;;
53959;SDS011;39866;48.638;-2.020;2022-09-01T03:14:48;11.65;;;2.78;;
53959;SDS011;39866;48.638;-2.020;2022-09-01T03:17:13;12.35;;;3.08;;
53959;SDS011;39866;48.638;-2.020;2022-09-01T03:19:39;8.93;;;2.67;;
53959;SDS011;39866;48.638;-2.020;2022-09-01T03:22:06;10.02;;;2.85;;
53959;SDS011;39866;48.638;-2.020;2022-09-01T03:24:31;8.77;;;2.67;;
53959;SDS011;39866;48.638;-2.020;2022-09-01T03:26:57;12.45;;;2.92;;
53959;SDS011;39866;48.638;-2.020;2022-09-01T03:29:22;10.35;;;2.67;;
53959;SDS011;39866;48.638;-2.020;2022-09-01T03:31:48;11.63;;;2.90;;
53959;SDS011;39866;48.638;-2.020;2022-09-01T03:34:14;8.80;;;2.90;;
53959;SDS011;39866;48.638;-2.020;2022-09-01T03:36:40;11.80;;;2.80;;
53959;SDS011;39866;48.638;-2.020;2022-09-01T03:39:14;12.75;;;3.13;;
53959;SDS011;39866;48.638;-2.020;2022-09-01T03:41:39;9.75;;;2.72;;
53959;SDS011;39866;48.638;-2.020;2022-09-01T03:44:05;12.82;;;3.25;;
53959;SDS011;39866;48.638;-2.020;2022-09-01T03:46:31;12.60;;;2.97;;
53959;SDS011;39866;48.638;-2.020;2022-09-01T03:48:57;11.82;;;2.80;;
53959;SDS011;39866;48.638;-2.020;2022-09-01T03:51:25;11.07;;;3.13;;
53959;SDS011;39866;48.638;-2.020;2022-09-01T03:53:52;12.65;;;3.00;;
53959;SDS011;39866;48.638;-2.020;2022-09-01T03:56:18;11.77;;;3.05;;
53959;SDS011;39866;48.638;-2.020;2022-09-01T03:58:44;11.43;;;3.47;;
53959;SDS011;39866;48.638;-2.020;2022-09-01T04:01:11;11.45;;;3.35;;
53959;SDS011;39866;48.638;-2.020;2022-09-01T04:03:36;11.30;;;3.15;;
53959;SDS011;39866;48.638;-2.020;2022-09-01T04:06:03;11.63;;;2.95;;
53959;SDS011;39866;48.638;-2.020;2022-09-01T04:08:31;8.98;;;2.78;;
53959;SDS011;39866;48.638;-2.020;2022-09-01T04:10:58;13.43;;;3.08;;
53959;SDS011;39866;48.638;-2.020;2022-09-01T04:13:28;10.70;;;2.63;;
53959;SDS011;39866;48.638;-2.020;2022-09-01T04:15:56;12.18;;;2.95;;
53959;SDS011;39866;48.638;-2.020;2022-09-01T04:18:22;15.60;;;2.90;;
53959;SDS011;39866;48.638;-2.020;2022-09-01T04:20:50;10.95;;;2.72;;
53959;SDS011;39866;48.638;-2.020;2022-09-01T04:25:58;13.50;;;3.00;;
53959;SDS011;39866;48.638;-2.020;2022-09-01T04:28:33;14.02;;;2.92;;
53959;SDS011;39866;48.638;-2.020;2022-09-01T04:31:02;11.10;;;2.83;;
53959;SDS011;39866;48.638;-2.020;2022-09-01T04:33:33;9.77;;;2.90;;
53959;SDS011;39866;48.638;-2.020;2022-09-01T04:36:04;13.48;;;3.15;;
53959;SDS011;39866;48.638;-2.020;2022-09-01T04:38:30;7.40;;;2.90;;
53959;SDS011;39866;48.638;-2.020;2022-09-01T04:41:02;9.00;;;2.40;;
53959;SDS011;39866;48.638;-2.020;2022-09-01T04:43:34;8.65;;;2.65;;
53959;SDS011;39866;48.638;-2.020;2022-09-01T04:46:00;12.32;;;2.47;;
53959;SDS011;39866;48.638;-2.020;2022-09-01T04:48:27;10.90;;;2.80;;
53959;SDS011;39866;48.638;-2.020;2022-09-01T04:50:52;10.10;;;2.70;;
53959;SDS011;39866;48.638;-2.020;2022-09-01T04:53:20;11.18;;;3.10;;
53959;SDS011;39866;48.638;-2.020;2022-09-01T04:55:45;12.13;;;2.78;;
53959;SDS011;39866;48.638;-2.020;2022-09-01T04:58:12;10.60;;;2.78;;
53959;SDS011;39866;48.638;-2.020;2022-09-01T05:00:42;11.15;;;2.65;;
53959;SDS011;39866;48.638;-2.020;2022-09-01T05:03:09;10.68;;;2.78;;
53959;SDS011;39866;48.638;-2.020;2022-09-01T05:05:44;9.52;;;2.50;;
53959;SDS011;39866;48.638;-2.020;2022-09-01T05:08:14;10.88;;;2.80;;
53959;SDS011;39866;48.638;-2.020;2022-09-01T05:10:43;13.00;;;3.13;;
53959;SDS011;39866;48.638;-2.020;2022-09-01T05:13:11;7.28;;;2.95;;
53959;SDS011;39866;48.638;-2.020;2022-09-01T05:15:41;8.07;;;2.90;;
53959;SDS011;39866;48.638;-2.020;2022-09-01T05:18:10;9.35;;;2.67;;
53959;SDS011;39866;48.638;-2.020;2022-09-01T05:20:48;10.60;;;3.35;;
53959;SDS011;39866;48.638;-2.020;2022-09-01T05:23:16;8.60;;;2.42;;
53959;SDS011;39866;48.638;-2.020;2022-09-01T05:25:46;12.73;;;3.45;;
53959;SDS011;39866;48.638;-2.020;2022-09-01T05:28:15;13.77;;;3.55;;
53959;SDS011;39866;48.638;-2.020;2022-09-01T05:30:43;16.75;;;4.07;;
53959;SDS011;39866;48.638;-2.020;2022-09-01T05:33:12;14.43;;;3.60;;
53959;SDS011;39866;48.638;-2.020;2022-09-01T05:35:41;16.10;;;4.70;;
53959;SDS011;39866;48.638;-2.020;2022-09-01T05:38:16;15.80;;;3.60;;
53959;SDS011;39866;48.638;-2.020;2022-09-01T05:40:42;10.23;;;3.50;;
53959;SDS011;39866;48.638;-2.020;2022-09-01T05:43:09;17.58;;;4.03;;
53959;SDS011;39866;48.638;-2.020;2022-09-01T05:45:37;13.32;;;3.70;;
53959;SDS011;39866;48.638;-2.020;2022-09-01T05:48:05;15.52;;;3.78;;
53959;SDS011;39866;48.638;-2.020;2022-09-01T05:50:33;13.05;;;3.65;;
53959;SDS011;39866;48.638;-2.020;2022-09-01T05:52:59;17.00;;;3.58;;
53959;SDS011;39866;48.638;-2.020;2022-09-01T05:55:24;14.18;;;3.45;;
53959;SDS011;39866;48.638;-2.020;2022-09-01T05:57:51;11.75;;;3.30;;
53959;SDS011;39866;48.638;-2.020;2022-09-01T06:00:17;11.88;;;3.90;;
53959;SDS011;39866;48.638;-2.020;2022-09-01T06:02:44;12.43;;;3.63;;
53959;SDS011;39866;48.638;-2.020;2022-09-01T06:05:09;10.20;;;3.55;;
53959;SDS011;39866;48.638;-2.020;2022-09-01T06:07:35;14.55;;;4.00;;
53959;SDS011;39866;48.638;-2.020;2022-09-01T06:10:07;18.40;;;4.40;;
53959;SDS011;39866;48.638;-2.020;2022-09-01T06:12:32;16.38;;;3.75;;
53959;SDS011;39866;48.638;-2.020;2022-09-01T06:14:58;12.88;;;3.90;;
53959;SDS011;39866;48.638;-2.020;2022-09-01T06:17:24;15.48;;;3.80;;
53959;SDS011;39866;48.638;-2.020;2022-09-01T06:19:51;15.15;;;3.67;;
53959;SDS011;39866;48.638;-2.020;2022-09-01T06:22:20;10.52;;;3.58;;
53959;SDS011;39866;48.638;-2.020;2022-09-01T06:24:47;16.80;;;3.70;;
53959;SDS011;39866;48.638;-2.020;2022-09-01T06:27:15;14.55;;;3.55;;
53959;SDS011;39866;48.638;-2.020;2022-09-01T06:29:42;10.18;;;2.80;;
53959;SDS011;39866;48.638;-2.020;2022-09-01T06:32:09;11.07;;;3.20;;
53959;SDS011;39866;48.638;-2.020;2022-09-01T06:34:42;12.45;;;3.35;;
53959;SDS011;39866;48.638;-2.020;2022-09-01T06:37:11;10.00;;;3.20;;
53959;SDS011;39866;48.638;-2.020;2022-09-01T06:39:39;10.75;;;3.00;;
53959;SDS011;39866;48.638;-2.020;2022-09-01T06:42:05;12.48;;;3.10;;
53959;SDS011;39866;48.638;-2.020;2022-09-01T06:44:30;8.13;;;2.90;;
53959;SDS011;39866;48.638;-2.020;2022-09-01T06:46:56;13.68;;;3.33;;
53959;SDS011;39866;48.638;-2.020;2022-09-01T06:49:24;9.48;;;3.13;;
53959;SDS011;39866;48.638;-2.020;2022-09-01T06:52:00;12.07;;;3.28;;
53959;SDS011;39866;48.638;-2.020;2022-09-01T06:54:27;11.05;;;3.08;;
53959;SDS011;39866;48.638;-2.020;2022-09-01T06:56:55;12.18;;;3.47;;
53959;SDS011;39866;48.638;-2.020;2022-09-01T06:59:22;13.57;;;3.10;;
53959;SDS011;39866;48.638;-2.020;2022-09-01T07:01:51;10.30;;;2.97;;
53959;SDS011;39866;48.638;-2.020;2022-09-01T07:04:18;9.93;;;2.72;;
53959;SDS011;39866;48.638;-2.020;2022-09-01T07:06:44;9.30;;;2.78;;
53959;SDS011;39866;48.638;-2.020;2022-09-01T07:09:09;10.70;;;3.13;;
53959;SDS011;39866;48.638;-2.020;2022-09-01T07:11:36;15.27;;;3.00;;
53959;SDS011;39866;48.638;-2.020;2022-09-01T07:14:02;9.57;;;2.83;;
53959;SDS011;39866;48.638;-2.020;2022-09-01T07:16:30;9.38;;;2.85;;
53959;SDS011;39866;48.638;-2.020;2022-09-01T07:18:59;10.25;;;3.17;;
53959;SDS011;39866;48.638;-2.020;2022-09-01T07:21:26;10.30;;;3.00;;
53959;SDS011;39866;48.638;-2.020;2022-09-01T07:23:53;13.52;;;3.17;;
53959;SDS011;39866;48.638;-2.020;2022-09-01T07:26:19;9.40;;;2.90;;
53959;SDS011;39866;48.638;-2.020;2022-09-01T07:28:49;8.77;;;3.00;;
53959;SDS011;39866;48.638;-2.020;2022-09-01T07:31:19;12.05;;;3.53;;
53959;SDS011;39866;48.638;-2.020;2022-09-01T07:33:47;8.15;;;2.70;;
53959;SDS011;39866;48.638;-2.020;2022-09-01T07:36:15;10.82;;;3.20;;
53959;SDS011;39866;48.638;-2.020;2022-09-01T07:38:41;9.70;;;2.80;;
53959;SDS011;39866;48.638;-2.020;2022-09-01T07:41:07;11.23;;;3.92;;
53959;SDS011;39866;48.638;-2.020;2022-09-01T07:43:36;10.07;;;3.10;;
53959;SDS011;39866;48.638;-2.020;2022-09-01T07:46:04;9.38;;;2.65;;
53959;SDS011;39866;48.638;-2.020;2022-09-01T07:48:30;10.73;;;3.47;;
53959;SDS011;39866;48.638;-2.020;2022-09-01T07:50:55;11.20;;;3.00;;
53959;SDS011;39866;48.638;-2.020;2022-09-01T07:53:22;8.75;;;2.60;;
53959;SDS011;39866;48.638;-2.020;2022-09-01T07:55:51;9.43;;;3.30;;
53959;SDS011;39866;48.638;-2.020;2022-09-01T07:58:19;9.98;;;3.65;;
53959;SDS011;39866;48.638;-2.020;2022-09-01T08:00:47;13.27;;;3.90;;
53959;SDS011;39866;48.638;-2.020;2022-09-01T08:03:14;12.13;;;3.38;;
53959;SDS011;39866;48.638;-2.020;2022-09-01T08:05:41;12.35;;;3.22;;
53959;SDS011;39866;48.638;-2.020;2022-09-01T08:08:07;13.35;;;3.90;;
53959;SDS011;39866;48.638;-2.020;2022-09-01T08:10:33;7.80;;;3.25;;
53959;SDS011;39866;48.638;-2.020;2022-09-01T08:12:58;7.43;;;3.03;;
53959;SDS011;39866;48.638;-2.020;2022-09-01T08:15:24;6.25;;;2.80;;
53959;SDS011;39866;48.638;-2.020;2022-09-01T08:17:49;14.02;;;3.70;;
53959;SDS011;39866;48.638;-2.020;2022-09-01T08:20:14;9.65;;;3.30;;
53959;SDS011;39866;48.638;-2.020;2022-09-01T08:22:40;8.52;;;2.97;;
53959;SDS011;39866;48.638;-2.020;2022-09-01T08:25:06;13.45;;;3.33;;
53959;SDS011;39866;48.638;-2.020;2022-09-01T08:27:33;7.90;;;2.88;;
53959;SDS011;39866;48.638;-2.020;2022-09-01T08:30:04;10.32;;;3.10;;
53959;SDS011;39866;48.638;-2.020;2022-09-01T08:32:31;9.35;;;3.17;;
53959;SDS011;39866;48.638;-2.020;2022-09-01T08:34:57;8.75;;;2.75;;
53959;SDS011;39866;48.638;-2.020;2022-09-01T08:37:23;9.50;;;3.10;;
53959;SDS011;39866;48.638;-2.020;2022-09-01T08:39:49;7.75;;;2.78;;
53959;SDS011;39866;48.638;-2.020;2022-09-01T08:47:22;8.55;;;2.92;;
53959;SDS011;39866;48.638;-2.020;2022-09-01T08:49:48;14.88;;;3.70;;
53959;SDS011;39866;48.638;-2.020;2022-09-01T08:52:20;7.28;;;3.05;;
53959;SDS011;39866;48.638;-2.020;2022-09-01T08:55:17;11.40;;;3.17;;
53959;SDS011;39866;48.638;-2.020;2022-09-01T08:57:53;9.43;;;2.90;;
53959;SDS011;39866;48.638;-2.020;2022-09-01T09:00:28;8.60;;;3.20;;
53959;SDS011;39866;48.638;-2.020;2022-09-01T09:08:58;11.48;;;3.00;;
53959;SDS011;39866;48.638;-2.020;2022-09-01T09:14:44;9.80;;;4.18;;
53959;SDS011;39866;48.638;-2.020;2022-09-01T09:17:01;7.80;;;3.25;;
53959;SDS011;39866;48.638;-2.020;2022-09-01T09:19:32;10.75;;;3.67;;
53959;SDS011;39866;48.638;-2.020;2022-09-01T09:22:00;8.38;;;3.53;;
53959;SDS011;39866;48.638;-2.020;2022-09-01T09:24:33;7.72;;;3.45;;
53959;SDS011;39866;48.638;-2.020;2022-09-01T09:32:23;9.02;;;3.00;;
53959;SDS011;39866;48.638;-2.020;2022-09-01T09:35:17;7.85;;;3.50;;
53959;SDS011;39866;48.638;-2.020;2022-09-01T09:37:48;8.55;;;3.03;;
53959;SDS011;39866;48.638;-2.020;2022-09-01T09:40:15;7.55;;;3.42;;
53959;SDS011;39866;48.638;-2.020;2022-09-01T09:45:23;9.18;;;3.58;;
53959;SDS011;39866;48.638;-2.020;2022-09-01T09:48:00;11.60;;;3.78;;
53959;SDS011;39866;48.638;-2.020;2022-09-01T09:50:48;7.68;;;3.03;;
53959;SDS011;39866;48.638;-2.020;2022-09-01T09:55:55;8.00;;;3.42;;
53959;SDS011;39866;48.638;-2.020;2022-09-01T09:58:24;9.05;;;3.55;;
53959;SDS011;39866;48.638;-2.020;2022-09-01T10:01:28;10.52;;;3.53;;
53959;SDS011;39866;48.638;-2.020;2022-09-01T10:03:55;10.02;;;3.45;;
53959;SDS011;39866;48.638;-2.020;2022-09-01T10:06:33;12.93;;;5.22;;
53959;SDS011;39866;48.638;-2.020;2022-09-01T10:09:04;10.55;;;4.30;;
53959;SDS011;39866;48.638;-2.020;2022-09-01T10:11:36;7.93;;;3.60;;
53959;SDS011;39866;48.638;-2.020;2022-09-01T10:14:05;9.77;;;3.47;;
53959;SDS011;39866;48.638;-2.020;2022-09-01T10:16:35;12.02;;;3.47;;
53959;SDS011;39866;48.638;-2.020;2022-09-01T10:19:04;21.65;;;11.40;;
53959;SDS011;39866;48.638;-2.020;2022-09-01T10:21:37;22.48;;;13.57;;
53959;SDS011;39866;48.638;-2.020;2022-09-01T10:26:48;8.15;;;3.90;;
53959;SDS011;39866;48.638;-2.020;2022-09-01T10:29:36;11.25;;;4.30;;
53959;SDS011;39866;48.638;-2.020;2022-09-01T10:32:09;7.35;;;4.20;;
53959;SDS011;39866;48.638;-2.020;2022-09-01T10:34:37;9.98;;;4.00;;
53959;SDS011;39866;48.638;-2.020;2022-09-01T10:37:05;8.38;;;3.88;;
53959;SDS011;39866;48.638;-2.020;2022-09-01T10:39:31;10.65;;;3.72;;
53959;SDS011;39866;48.638;-2.020;2022-09-01T10:41:57;10.13;;;4.22;;
53959;SDS011;39866;48.638;-2.020;2022-09-01T10:44:37;12.38;;;4.65;;
53959;SDS011;39866;48.638;-2.020;2022-09-01T10:47:24;10.57;;;4.82;;
53959;SDS011;39866;48.638;-2.020;2022-09-01T10:55:20;8.30;;;4.82;;
53959;SDS011;39866;48.638;-2.020;2022-09-01T11:05:57;15.48;;;7.20;;
53959;SDS011;39866;48.638;-2.020;2022-09-01T11:11:09;9.48;;;6.30;;
53959;SDS011;39866;48.638;-2.020;2022-09-01T11:13:55;12.63;;;6.20;;
53959;SDS011;39866;48.638;-2.020;2022-09-01T11:22:04;9.70;;;5.80;;
53959;SDS011;39866;48.638;-2.020;2022-09-01T11:27:02;10.25;;;6.00;;
53959;SDS011;39866;48.638;-2.020;2022-09-01T11:32:21;11.68;;;6.60;;
53959;SDS011;39866;48.638;-2.020;2022-09-01T11:34:51;11.77;;;6.50;;
53959;SDS011;39866;48.638;-2.020;2022-09-01T11:37:20;10.93;;;6.15;;
53959;SDS011;39866;48.638;-2.020;2022-09-01T11:39:48;13.43;;;6.53;;
53959;SDS011;39866;48.638;-2.020;2022-09-01T11:50:01;12.73;;;6.18;;
53959;SDS011;39866;48.638;-2.020;2022-09-01T11:52:30;12.13;;;6.55;;
53959;SDS011;39866;48.638;-2.020;2022-09-01T11:54:59;11.40;;;6.80;;
53959;SDS011;39866;48.638;-2.020;2022-09-01T11:57:39;9.07;;;6.50;;
53959;SDS011;39866;48.638;-2.020;2022-09-01T12:00:10;10.88;;;6.57;;
53959;SDS011;39866;48.638;-2.020;2022-09-01T12:02:47;8.38;;;5.22;;
53959;SDS011;39866;48.638;-2.020;2022-09-01T12:05:24;9.32;;;5.20;;
53959;SDS011;39866;48.638;-2.020;2022-09-01T12:07:55;12.48;;;5.88;;
53959;SDS011;39866;48.638;-2.020;2022-09-01T12:10:36;7.28;;;5.32;;
53959;SDS011;39866;48.638;-2.020;2022-09-01T12:13:10;11.43;;;5.82;;
53959;SDS011;39866;48.638;-2.020;2022-09-01T12:15:42;14.65;;;7.57;;
53959;SDS011;39866;48.638;-2.020;2022-09-01T12:18:27;11.18;;;7.68;;
53959;SDS011;39866;48.638;-2.020;2022-09-01T12:20:56;10.15;;;6.70;;
53959;SDS011;39866;48.638;-2.020;2022-09-01T12:25:55;16.17;;;6.90;;
53959;SDS011;39866;48.638;-2.020;2022-09-01T12:28:26;11.50;;;6.40;;
53959;SDS011;39866;48.638;-2.020;2022-09-01T12:30:55;19.90;;;8.63;;
53959;SDS011;39866;48.638;-2.020;2022-09-01T12:33:22;14.38;;;6.95;;
53959;SDS011;39866;48.638;-2.020;2022-09-01T12:35:48;17.40;;;7.55;;
53959;SDS011;39866;48.638;-2.020;2022-09-01T12:38:23;17.92;;;9.40;;
53959;SDS011;39866;48.638;-2.020;2022-09-01T12:40:52;15.90;;;8.60;;
53959;SDS011;39866;48.638;-2.020;2022-09-01T12:43:27;14.68;;;8.80;;
53959;SDS011;39866;48.638;-2.020;2022-09-01T12:45:54;14.13;;;9.10;;
53959;SDS011;39866;48.638;-2.020;2022-09-01T12:48:26;12.70;;;8.80;;
53959;SDS011;39866;48.638;-2.020;2022-09-01T12:50:58;15.65;;;8.48;;
53959;SDS011;39866;48.638;-2.020;2022-09-01T12:53:30;14.52;;;8.52;;
53959;SDS011;39866;48.638;-2.020;2022-09-01T12:58:31;14.73;;;9.05;;
53959;SDS011;39866;48.638;-2.020;2022-09-01T13:01:01;13.90;;;8.13;;
53959;SDS011;39866;48.638;-2.020;2022-09-01T13:03:29;10.95;;;8.18;;
53959;SDS011;39866;48.638;-2.020;2022-09-01T13:05:57;13.23;;;7.70;;
53959;SDS011;39866;48.638;-2.020;2022-09-01T13:08:25;11.95;;;7.63;;
53959;SDS011;39866;48.638;-2.020;2022-09-01T13:11:00;13.48;;;7.10;;
53959;SDS011;39866;48.638;-2.020;2022-09-01T13:13:38;14.60;;;7.72;;
53959;SDS011;39866;48.638;-2.020;2022-09-01T13:16:04;13.10;;;7.43;;
53959;SDS011;39866;48.638;-2.020;2022-09-01T13:18:38;14.80;;;7.47;;
53959;SDS011;39866;48.638;-2.020;2022-09-01T13:21:04;16.42;;;7.95;;
53959;SDS011;39866;48.638;-2.020;2022-09-01T13:23:31;11.25;;;6.95;;
53959;SDS011;39866;48.638;-2.020;2022-09-01T13:25:56;16.17;;;8.05;;
53959;SDS011;39866;48.638;-2.020;2022-09-01T13:28:23;14.07;;;7.43;;
53959;SDS011;39866;48.638;-2.020;2022-09-01T13:30:51;19.60;;;7.75;;
53959;SDS011;39866;48.638;-2.020;2022-09-01T13:33:20;15.65;;;8.05;;
53959;SDS011;39866;48.638;-2.020;2022-09-01T13:35:46;14.88;;;8.45;;
53959;SDS011;39866;48.638;-2.020;2022-09-01T13:38:12;32.28;;;10.73;;
53959;SDS011;39866;48.638;-2.020;2022-09-01T13:40:40;24.67;;;9.18;;
53959;SDS011;39866;48.638;-2.020;2022-09-01T13:43:05;17.58;;;9.07;;
53959;SDS011;39866;48.638;-2.020;2022-09-01T13:45:31;19.00;;;9.30;;
53959;SDS011;39866;48.638;-2.020;2022-09-01T13:47:56;16.00;;;8.93;;
53959;SDS011;39866;48.638;-2.020;2022-09-01T13:50:22;17.05;;;9.18;;
53959;SDS011;39866;48.638;-2.020;2022-09-01T13:52:49;19.75;;;9.70;;
53959;SDS011;39866;48.638;-2.020;2022-09-01T13:55:17;19.35;;;9.55;;
53959;SDS011;39866;48.638;-2.020;2022-09-01T13:57:44;18.83;;;9.45;;
53959;SDS011;39866;48.638;-2.020;2022-09-01T14:00:11;12.95;;;7.80;;
53959;SDS011;39866;48.638;-2.020;2022-09-01T14:02:41;14.93;;;9.10;;
53959;SDS011;39866;48.638;-2.020;2022-09-01T14:05:36;13.27;;;8.10;;
53959;SDS011;39866;48.638;-2.020;2022-09-01T14:08:04;9.07;;;6.40;;
53959;SDS011;39866;48.638;-2.020;2022-09-01T14:10:31;15.95;;;9.35;;
53959;SDS011;39866;48.638;-2.020;2022-09-01T14:12:57;16.20;;;8.88;;
53959;SDS011;39866;48.638;-2.020;2022-09-01T14:15:24;15.10;;;8.50;;
53959;SDS011;39866;48.638;-2.020;2022-09-01T14:17:51;16.00;;;8.70;;
53959;SDS011;39866;48.638;-2.020;2022-09-01T14:20:18;15.65;;;9.13;;
53959;SDS011;39866;48.638;-2.020;2022-09-01T14:22:46;13.65;;;8.85;;
53959;SDS011;39866;48.638;-2.020;2022-09-01T14:25:13;18.98;;;9.30;;
53959;SDS011;39866;48.638;-2.020;2022-09-01T14:27:39;21.20;;;10.52;;
53959;SDS011;39866;48.638;-2.020;2022-09-01T14:30:06;15.77;;;8.68;;
53959;SDS011;39866;48.638;-2.020;2022-09-01T14:32:33;18.15;;;9.27;;
53959;SDS011;39866;48.638;-2.020;2022-09-01T14:35:00;12.75;;;7.78;;
53959;SDS011;39866;48.638;-2.020;2022-09-01T14:37:26;16.50;;;8.07;;
53959;SDS011;39866;48.638;-2.020;2022-09-01T14:39:54;14.93;;;7.50;;
53959;SDS011;39866;48.638;-2.020;2022-09-01T14:42:22;16.38;;;7.50;;
53959;SDS011;39866;48.638;-2.020;2022-09-01T14:44:52;12.60;;;6.25;;
53959;SDS011;39866;48.638;-2.020;2022-09-01T14:47:18;13.05;;;7.15;;
53959;SDS011;39866;48.638;-2.020;2022-09-01T14:49:43;12.73;;;6.85;;
53959;SDS011;39866;48.638;-2.020;2022-09-01T14:52:09;13.02;;;6.57;;
53959;SDS011;39866;48.638;-2.020;2022-09-01T14:54:35;17.58;;;7.47;;
53959;SDS011;39866;48.638;-2.020;2022-09-01T14:57:02;14.82;;;7.00;;
53959;SDS011;39866;48.638;-2.020;2022-09-01T14:59:28;8.55;;;5.22;;
53959;SDS011;39866;48.638;-2.020;2022-09-01T15:01:53;13.85;;;5.63;;
53959;SDS011;39866;48.638;-2.020;2022-09-01T15:04:19;12.50;;;6.13;;
53959;SDS011;39866;48.638;-2.020;2022-09-01T15:06:44;14.70;;;7.47;;
53959;SDS011;39866;48.638;-2.020;2022-09-01T15:09:10;11.38;;;5.53;;
53959;SDS011;39866;48.638;-2.020;2022-09-01T15:11:35;11.32;;;5.45;;
53959;SDS011;39866;48.638;-2.020;2022-09-01T15:14:00;13.48;;;7.30;;
53959;SDS011;39866;48.638;-2.020;2022-09-01T15:16:26;12.88;;;7.07;;
53959;SDS011;39866;48.638;-2.020;2022-09-01T15:18:54;12.68;;;6.05;;
53959;SDS011;39866;48.638;-2.020;2022-09-01T15:23:50;15.38;;;6.90;;
53959;SDS011;39866;48.638;-2.020;2022-09-01T15:26:18;11.50;;;6.07;;
53959;SDS011;39866;48.638;-2.020;2022-09-01T15:28:43;13.60;;;5.78;;
53959;SDS011;39866;48.638;-2.020;2022-09-01T15:31:10;10.70;;;5.70;;
53959;SDS011;39866;48.638;-2.020;2022-09-01T15:33:36;11.82;;;4.97;;
53959;SDS011;39866;48.638;-2.020;2022-09-01T15:36:02;13.65;;;6.13;;
53959;SDS011;39866;48.638;-2.020;2022-09-01T15:38:28;16.27;;;6.57;;
53959;SDS011;39866;48.638;-2.020;2022-09-01T15:40:53;15.30;;;6.57;;
53959;SDS011;39866;48.638;-2.020;2022-09-01T15:43:19;9.13;;;6.15;;
53959;SDS011;39866;48.638;-2.020;2022-09-01T15:45:46;11.32;;;6.45;;